Terminal Aerodrome Forecast
Issued by NWS

Home | Current Version | Previous Version | Text Only | Print | Product List | Glossary On
Versions: 1 2 3 4 5 6 7 8 9 10 11 12 13 14 15
000
FTUS43 KGRR 130200 AAA
TAFJXN
TAF AMD
KJXN 130257Z 1303/1324 20008KT P6SM VCSH SCT025 OVC040
     FM130500 21012KT 4SM TSRA BR SCT010 OVC025CB
      TEMPO 1305/1308 1SM TSRA BR OVC010CB
     FM130800 24012KT 5SM BR VCSH OVC009
     FM131500 27013G22KT P6SM SCT040=

USA.gov is the U.S. government's official web portal to all federal, state and local government web resources and services.